createdAt,value
2019-05-14T00:01:38.433Z,102805.63
2019-05-14T00:04:05.206Z,102806.47
2019-05-14T00:06:32.092Z,102805.76
2019-05-14T00:08:58.943Z,102812.59
2019-05-14T00:11:25.938Z,102814.95
2019-05-14T00:13:52.741Z,102809.50
2019-05-14T00:16:22.251Z,102805.06
2019-05-14T00:18:48.274Z,102807.47
2019-05-14T00:21:15.022Z,102805.53
2019-05-14T00:23:42.153Z,102796.98
2019-05-14T00:26:09.186Z,102798.66
2019-05-14T00:28:36.133Z,102799.66
2019-05-14T00:31:03.150Z,102792.47
2019-05-14T00:33:31.591Z,102797.07
2019-05-14T00:35:58.406Z,102788.58
2019-05-14T00:38:25.664Z,102794.80
2019-05-14T00:40:52.413Z,102800.00
2019-05-14T00:43:21.508Z,102797.62
2019-05-14T00:45:48.305Z,102792.41
2019-05-14T00:48:15.166Z,102795.77
2019-05-14T00:50:42.222Z,102789.61
2019-05-14T00:53:11.682Z,102795.06
2019-05-14T00:55:37.690Z,102792.02
2019-05-14T00:58:05.657Z,102790.95
2019-05-14T01:00:32.710Z,102796.09
2019-05-14T01:03:01.920Z,102789.11
2019-05-14T01:05:28.880Z,102785.05
2019-05-14T01:07:55.640Z,102788.55
2019-05-14T01:10:22.540Z,102786.36
2019-05-14T01:12:51.894Z,102788.20
2019-05-14T01:15:18.518Z,102789.09
2019-05-14T01:17:45.293Z,102783.75
2019-05-14T01:20:12.547Z,102788.78
2019-05-14T01:22:42.053Z,102789.85
2019-05-14T01:25:08.915Z,102787.89
2019-05-14T01:27:35.781Z,102782.75
2019-05-14T01:30:02.948Z,102783.08
2019-05-14T01:32:31.499Z,102782.25
2019-05-14T01:34:58.378Z,102782.19
2019-05-14T01:37:25.137Z,102776.98
2019-05-14T01:39:52.255Z,102781.36
2019-05-14T01:42:21.475Z,102778.75
2019-05-14T01:44:48.418Z,102779.94
2019-05-14T01:47:15.189Z,102784.20
2019-05-14T01:49:42.744Z,102777.68
2019-05-14T01:52:11.295Z,102776.23
2019-05-14T01:54:38.197Z,102779.73
2019-05-14T01:57:04.993Z,102782.69
2019-05-14T01:59:32.323Z,102773.03
2019-05-14T02:02:02.127Z,102768.59
2019-05-14T02:04:28.770Z,102772.83
2019-05-14T02:06:55.900Z,102777.43
2019-05-14T02:09:22.761Z,102774.77
2019-05-14T02:11:51.795Z,102776.55
2019-05-14T02:14:18.474Z,102777.16
2019-05-14T02:16:45.532Z,102770.52
2019-05-14T02:19:12.387Z,102767.06
2019-05-14T02:21:39.295Z,102770.83
2019-05-14T02:24:06.281Z,102763.78
2019-05-14T02:26:33.181Z,102772.08
2019-05-14T02:29:02.157Z,102765.09
2019-05-14T02:31:29.312Z,102769.69
2019-05-14T02:33:58.985Z,102770.51
2019-05-14T02:36:25.078Z,102777.35
2019-05-14T02:38:51.839Z,102775.70
2019-05-14T02:41:19.774Z,102774.04
2019-05-14T02:43:49.928Z,102771.94
2019-05-14T02:46:55.705Z,102770.94
2019-05-14T02:50:40.689Z,102767.08
2019-05-14T02:53:10.237Z,102768.80
2019-05-14T02:55:38.962Z,102760.56
2019-05-14T02:58:05.264Z,102762.95
2019-05-14T03:00:32.933Z,102758.89
2019-05-14T03:03:00.094Z,102757.17
2019-05-14T03:05:29.522Z,102764.16
2019-05-14T03:07:55.820Z,102759.42
2019-05-14T03:10:22.684Z,102754.33
2019-05-14T03:12:50.414Z,102758.65
2019-05-14T03:15:20.131Z,102760.15
2019-05-14T03:17:49.205Z,102764.31
2019-05-14T03:20:15.157Z,102759.98
2019-05-14T03:22:55.471Z,102768.03
2019-05-14T03:25:11.738Z,102769.27
2019-05-14T03:27:40.493Z,102767.45
2019-05-14T03:30:12.623Z,102772.37
2019-05-14T03:32:41.799Z,102765.61
2019-05-14T03:35:05.996Z,102772.69
2019-05-14T03:37:34.842Z,102772.97
2019-05-14T03:40:01.751Z,102779.20
2019-05-14T03:42:29.266Z,102776.89
2019-05-14T03:44:59.375Z,102776.45
2019-05-14T03:47:25.363Z,102775.87
2019-05-14T03:49:52.439Z,102777.36
2019-05-14T03:52:20.139Z,102776.22
2019-05-14T03:54:49.669Z,102774.91
2019-05-14T03:57:15.771Z,102777.48
2019-05-14T03:59:42.600Z,102775.62
2019-05-14T04:02:09.873Z,102771.55
2019-05-14T04:04:39.371Z,102776.01
2019-05-14T04:07:09.374Z,102768.64
2019-05-14T04:09:35.160Z,102778.47
2019-05-14T04:12:02.041Z,102768.34
2019-05-14T04:14:30.819Z,102774.08
2019-05-14T04:17:09.295Z,102781.01
2019-05-14T04:19:31.359Z,102775.73
2019-05-14T04:21:59.893Z,102780.13
2019-05-14T04:24:29.815Z,102783.25
2019-05-14T04:27:07.303Z,102779.49
2019-05-14T04:29:30.583Z,102780.80
2019-05-14T04:32:00.139Z,102775.22
2019-05-14T04:34:30.039Z,102785.07
2019-05-14T04:36:59.215Z,102791.04
2019-05-14T04:39:25.257Z,102784.24
2019-05-14T04:41:52.156Z,102791.88
2019-05-14T04:44:19.408Z,102801.06
2019-05-14T04:46:49.327Z,102787.98
2019-05-14T04:49:15.675Z,102783.41
2019-05-14T04:51:43.017Z,102785.66
2019-05-14T04:54:10.076Z,102791.26
2019-05-14T04:56:39.778Z,102781.03
2019-05-14T04:59:10.510Z,102790.51
2019-05-14T05:01:39.911Z,102787.60
2019-05-14T05:04:09.253Z,102791.80
2019-05-14T05:06:34.644Z,102799.36
2019-05-14T05:09:01.599Z,102792.57
2019-05-14T05:11:29.220Z,102796.63
2019-05-14T05:13:58.542Z,102796.13
2019-05-14T05:16:25.362Z,102787.86
2019-05-14T05:18:52.481Z,102792.03
2019-05-14T05:21:19.635Z,102800.16
2019-05-14T05:23:49.044Z,102794.23
2019-05-14T05:26:18.271Z,102788.52
2019-05-14T05:28:58.221Z,102787.19
2019-05-14T05:31:13.130Z,102787.97
2019-05-14T05:33:39.925Z,102787.68
2019-05-14T05:36:09.181Z,102783.81
2019-05-14T05:38:35.696Z,102780.90
2019-05-14T05:41:02.580Z,102778.80
2019-05-14T05:43:29.374Z,102775.26
2019-05-14T05:45:56.147Z,102773.16
2019-05-14T05:48:23.065Z,102778.66
2019-05-14T05:50:50.265Z,102779.17
2019-05-14T05:53:19.249Z,102769.47
2019-05-14T05:55:48.308Z,102776.06
2019-05-14T05:58:14.646Z,102771.78
2019-05-14T06:00:41.575Z,102777.23
2019-05-14T06:03:10.874Z,102782.85
2019-05-14T06:05:38.902Z,102787.28
2019-05-14T06:08:08.437Z,102787.66
2019-05-14T06:10:34.872Z,102783.31
2019-05-14T06:13:01.890Z,102789.77
2019-05-14T06:15:43.850Z,102787.17
2019-05-14T06:18:11.489Z,102791.97
2019-05-14T06:20:28.216Z,102783.20
2019-05-14T06:22:55.523Z,102790.41
2019-05-14T06:25:22.402Z,102782.48
2019-05-14T06:27:49.297Z,102787.23
2019-05-14T06:30:45.086Z,102789.94
2019-05-14T06:33:11.899Z,102781.44
2019-05-14T06:35:39.605Z,102782.57
2019-05-14T06:38:08.918Z,102789.49
2019-05-14T06:40:35.863Z,102780.13
2019-05-14T06:43:03.034Z,102780.61
2019-05-14T06:45:30.096Z,102777.11
2019-05-14T06:47:59.171Z,102777.27
2019-05-14T06:50:28.335Z,102781.12
2019-05-14T06:52:54.450Z,102781.09
2019-05-14T06:55:21.250Z,102781.69
2019-05-14T06:57:48.245Z,102786.89
2019-05-14T07:00:15.151Z,102784.42
2019-05-14T07:02:44.131Z,102782.60
2019-05-14T07:05:10.808Z,102787.45
2019-05-14T07:07:40.377Z,102784.69
2019-05-14T07:10:08.926Z,102791.73
2019-05-14T07:12:35.488Z,102789.09
2019-05-14T07:15:02.460Z,102789.09
2019-05-14T07:17:29.358Z,102778.99
2019-05-14T07:19:58.255Z,102786.48
2019-05-14T07:22:24.964Z,102780.86
2019-05-14T07:24:51.868Z,102775.58
2019-05-14T07:27:19.306Z,102772.12
2019-05-14T07:29:46.278Z,102780.97
2019-05-14T07:32:13.214Z,102778.06
2019-05-14T07:34:40.447Z,102783.00
2019-05-14T07:37:09.400Z,102774.61
2019-05-14T07:39:38.449Z,102767.58
2019-05-14T07:42:05.209Z,102769.78
2019-05-14T07:44:31.969Z,102773.39
2019-05-14T07:46:59.122Z,102771.67
2019-05-14T07:49:26.320Z,102777.41
2019-05-14T07:51:53.477Z,102770.80
2019-05-14T07:54:20.401Z,102776.96
2019-05-14T07:56:50.877Z,102777.38
2019-05-14T07:59:17.975Z,102775.16
2019-05-14T08:01:45.141Z,102767.20
2019-05-14T08:04:12.446Z,102770.73
2019-05-14T08:06:39.536Z,102765.47
2019-05-14T08:09:08.621Z,102765.06
2019-05-14T08:11:35.858Z,102764.56
2019-05-14T08:14:02.774Z,102760.94
2019-05-14T08:16:29.667Z,102759.28
2019-05-14T08:18:56.937Z,102762.30
2019-05-14T08:21:23.685Z,102757.92
2019-05-14T08:23:50.511Z,102756.89
2019-05-14T08:26:19.126Z,102748.50
2019-05-14T08:28:48.644Z,102754.68
2019-05-14T08:31:15.713Z,102761.38
2019-05-14T08:33:43.002Z,102752.63
2019-05-14T08:36:09.755Z,102752.56
2019-05-14T08:38:38.287Z,102744.43
2019-05-14T08:41:05.478Z,102742.83
2019-05-14T08:43:33.362Z,102740.76
2019-05-14T08:46:00.214Z,102734.67
2019-05-14T08:48:29.698Z,102733.83
2019-05-14T08:50:56.045Z,102733.20
2019-05-14T08:53:22.948Z,102730.89
2019-05-14T08:55:50.018Z,102725.54
2019-05-14T08:58:20.139Z,102718.48
2019-05-14T09:00:48.071Z,102722.42
2019-05-14T09:03:14.481Z,102716.70
2019-05-14T09:05:41.621Z,102713.00
2019-05-14T09:08:09.539Z,102712.33
2019-05-14T09:10:36.546Z,102709.75
2019-05-14T09:13:03.414Z,102707.50
2019-05-14T09:15:30.529Z,102710.66
2019-05-14T09:17:58.768Z,102706.23
2019-05-14T09:20:26.074Z,102696.86
2019-05-14T09:22:53.021Z,102693.47
2019-05-14T09:25:19.898Z,102684.53
2019-05-14T09:27:49.274Z,102690.53
2019-05-14T09:30:18.310Z,102682.94
2019-05-14T09:32:44.720Z,102688.88
2019-05-14T09:35:11.632Z,102689.95
2019-05-14T09:37:39.479Z,102684.20
2019-05-14T09:40:08.764Z,102678.36
2019-05-14T09:42:38.987Z,102675.91
2019-05-14T09:45:04.932Z,102659.63
2019-05-14T09:47:31.841Z,102659.63
2019-05-14T09:50:15.053Z,102654.73
2019-05-14T09:52:29.369Z,102657.53
2019-05-14T09:54:58.594Z,102658.97
2019-05-14T09:57:25.041Z,102659.99
2019-05-14T09:59:52.196Z,102662.51
2019-05-14T10:02:19.167Z,102656.63
2019-05-14T10:04:49.004Z,102665.14
2019-05-14T10:07:15.911Z,102654.95
2019-05-14T10:09:43.093Z,102660.09
2019-05-14T10:12:09.890Z,102653.08
2019-05-14T10:14:39.276Z,102645.80
2019-05-14T10:17:05.785Z,102649.32
2019-05-14T10:19:32.681Z,102643.11
2019-05-14T10:21:59.440Z,102642.17
2019-05-14T10:24:26.244Z,102634.03
2019-05-14T10:26:53.596Z,102631.01
2019-05-14T10:29:20.784Z,102647.08
2019-05-14T10:31:48.599Z,102650.14
2019-05-14T10:34:15.741Z,102638.45
2019-05-14T10:36:42.634Z,102636.53
2019-05-14T10:39:09.857Z,102647.12
2019-05-14T10:41:38.460Z,102641.09
2019-05-14T10:44:05.628Z,102637.09
2019-05-14T10:46:32.850Z,102636.69
2019-05-14T10:49:14.668Z,102628.67
2019-05-14T10:51:28.729Z,102638.28
2019-05-14T10:53:59.116Z,102634.70
2019-05-14T10:56:25.058Z,102638.23
2019-05-14T10:58:51.699Z,102643.02
2019-05-14T11:01:22.463Z,102631.61
2019-05-14T11:03:48.420Z,102629.23
2019-05-14T11:06:18.538Z,102622.95
2019-05-14T11:08:45.221Z,102622.35
2019-05-14T11:11:12.103Z,102626.77
2019-05-14T11:13:44.154Z,102612.69
2019-05-14T11:16:11.050Z,102621.59
2019-05-14T11:18:39.974Z,102626.63
2019-05-14T11:21:19.778Z,102630.98
2019-05-14T11:23:38.409Z,102632.59
2019-05-14T11:26:04.363Z,102623.22
2019-05-14T11:28:31.126Z,102619.43
2019-05-14T11:30:57.874Z,102620.86
2019-05-14T11:33:25.045Z,102614.80
2019-05-14T11:35:52.120Z,102603.77
2019-05-14T11:38:32.339Z,102600.70
2019-05-14T11:40:49.520Z,102608.67
2019-05-14T11:43:16.719Z,102597.84
2019-05-14T11:45:43.560Z,102601.47
2019-05-14T11:48:10.644Z,102609.41
2019-05-14T11:50:37.582Z,102602.36
2019-05-14T11:53:05.286Z,102603.86
2019-05-14T11:55:32.585Z,102596.84
2019-05-14T11:57:59.561Z,102586.71
2019-05-14T12:00:29.460Z,102582.69
2019-05-14T12:02:58.645Z,102594.66
2019-05-14T12:05:26.207Z,102600.02
2019-05-14T12:07:53.075Z,102598.27
2019-05-14T12:10:20.064Z,102598.11
2019-05-14T12:12:48.912Z,102579.81
2019-05-14T12:15:18.538Z,102588.84
2019-05-14T12:17:44.577Z,102591.20
2019-05-14T12:20:11.425Z,102594.05
2019-05-14T12:22:39.550Z,102593.27
2019-05-14T12:25:08.154Z,102591.16
2019-05-14T12:27:35.470Z,102583.25
2019-05-14T12:30:02.527Z,102579.63
2019-05-14T12:32:29.656Z,102581.95
2019-05-14T12:34:59.203Z,102583.00
2019-05-14T12:37:25.392Z,102583.98
2019-05-14T12:39:52.242Z,102571.83
2019-05-14T12:42:19.544Z,102582.21
2019-05-14T12:44:48.707Z,102573.69
2019-05-14T12:47:15.557Z,102567.95
2019-05-14T12:49:42.413Z,102571.19
2019-05-14T12:52:21.121Z,102568.99
2019-05-14T12:54:38.979Z,102556.53
2019-05-14T12:57:05.904Z,102553.67
2019-05-14T12:59:32.906Z,102550.08
2019-05-14T13:01:59.663Z,102547.66
2019-05-14T13:04:28.513Z,102546.50
2019-05-14T13:06:55.737Z,102548.92
2019-05-14T13:09:22.818Z,102545.39
2019-05-14T13:11:49.695Z,102549.98
2019-05-14T13:14:16.557Z,102543.78
2019-05-14T13:16:43.381Z,102553.53
2019-05-14T13:19:10.302Z,102541.72
2019-05-14T13:21:39.007Z,102538.94
2019-05-14T13:24:05.733Z,102537.08
2019-05-14T13:26:32.383Z,102532.86
2019-05-14T13:28:59.141Z,102525.19
2019-05-14T13:31:29.022Z,102517.77
2019-05-14T13:33:54.960Z,102510.19
2019-05-14T13:36:21.832Z,102506.20
2019-05-14T13:38:49.397Z,102519.98
2019-05-14T13:41:19.029Z,102506.47
2019-05-14T13:43:45.262Z,102513.82
2019-05-14T13:46:15.066Z,102515.38
2019-05-14T13:48:43.432Z,102514.95
2019-05-14T13:51:09.772Z,102517.48
2019-05-14T13:53:38.814Z,102510.47
2019-05-14T13:56:05.553Z,102503.36
2019-05-14T13:58:32.337Z,102504.95
2019-05-14T14:00:59.668Z,102502.63
2019-05-14T14:03:29.249Z,102508.98
2019-05-14T14:05:59.128Z,102504.49
2019-05-14T14:08:24.325Z,102501.23
2019-05-14T14:10:53.411Z,102495.56
2019-05-14T14:13:20.157Z,102495.29
2019-05-14T14:15:48.893Z,102495.41
2019-05-14T14:18:15.979Z,102494.95
2019-05-14T14:20:42.961Z,102494.53
2019-05-14T14:23:21.792Z,102493.32
2019-05-14T14:25:39.556Z,102479.83
2019-05-14T14:28:09.960Z,102477.63
2019-05-14T14:30:35.969Z,102475.42
2019-05-14T14:33:03.128Z,102479.05
2019-05-14T14:35:30.545Z,102463.89
2019-05-14T14:37:59.157Z,102473.33
2019-05-14T14:40:25.938Z,102460.87
2019-05-14T14:42:52.745Z,102470.64
2019-05-14T14:45:22.425Z,102466.66
2019-05-14T14:47:49.845Z,102468.88
2019-05-14T14:50:19.317Z,102469.48
2019-05-14T14:52:45.511Z,102453.84
2019-05-14T14:55:12.381Z,102454.47
2019-05-14T14:57:44.965Z,102456.56
2019-05-14T15:00:10.153Z,102454.55
2019-05-14T15:02:40.792Z,102466.48
2019-05-14T15:05:13.302Z,102464.13
2019-05-14T15:07:35.352Z,102463.58
2019-05-14T15:10:02.106Z,102449.09
2019-05-14T15:12:29.268Z,102453.60
2019-05-14T15:14:59.252Z,102456.29
2019-05-14T15:17:25.219Z,102445.62
2019-05-14T15:19:52.954Z,102446.47
2019-05-14T15:22:21.127Z,102446.63
2019-05-14T15:24:48.818Z,102444.58
2019-05-14T15:27:18.739Z,102442.98
2019-05-14T15:29:45.168Z,102460.55
2019-05-14T15:32:12.103Z,102455.48
2019-05-14T15:34:38.859Z,102450.42
2019-05-14T15:37:08.752Z,102442.77
2019-05-14T15:39:34.482Z,102442.72
2019-05-14T15:42:05.079Z,102442.75
2019-05-14T15:44:46.824Z,102445.22
2019-05-14T15:46:58.836Z,102429.06
2019-05-14T15:49:28.190Z,102438.48
2019-05-14T15:51:54.664Z,102431.20
2019-05-14T15:54:36.129Z,102428.56
2019-05-14T15:56:50.206Z,102422.52
2019-05-14T15:59:19.138Z,102432.42
2019-05-14T16:01:45.985Z,102430.10
2019-05-14T16:04:12.987Z,102430.84
2019-05-14T16:06:39.854Z,102425.23
2019-05-14T16:09:06.700Z,102417.03
2019-05-14T16:11:33.506Z,102418.90
2019-05-14T16:14:00.367Z,102419.63
2019-05-14T16:16:28.981Z,102414.48
2019-05-14T16:18:55.809Z,102414.53
2019-05-14T16:21:23.998Z,102416.36
2019-05-14T16:23:51.580Z,102415.55
2019-05-14T16:26:18.883Z,102420.45
2019-05-14T16:28:46.554Z,102421.52
2019-05-14T16:31:13.628Z,102415.82
2019-05-14T16:33:40.943Z,102415.61
2019-05-14T16:36:08.862Z,102402.73
2019-05-14T16:38:36.215Z,102410.49
2019-05-14T16:41:03.072Z,102407.20
2019-05-14T16:43:32.377Z,102404.17
2019-05-14T16:45:59.794Z,102404.58
2019-05-14T16:48:28.872Z,102411.88
2019-05-14T16:50:55.400Z,102399.66
2019-05-14T16:53:22.252Z,102404.70
2019-05-14T16:55:49.338Z,102399.14
2019-05-14T16:58:19.202Z,102405.09
2019-05-14T17:00:44.746Z,102402.11
2019-05-14T17:03:11.639Z,102405.26
2019-05-14T17:05:38.418Z,102405.95
2019-05-14T17:08:05.171Z,102402.09
2019-05-14T17:10:31.963Z,102398.14
2019-05-14T17:13:01.780Z,102395.16
2019-05-14T17:15:28.774Z,102403.52
2019-05-14T17:17:55.741Z,102405.02
2019-05-14T17:20:24.357Z,102394.05
2019-05-14T17:22:51.277Z,102397.66
2019-05-14T17:25:26.589Z,102398.05
2019-05-14T17:27:48.637Z,102409.06
2019-05-14T17:30:18.174Z,102401.18
2019-05-14T17:32:44.510Z,102399.90
2019-05-14T17:35:11.256Z,102405.18
2019-05-14T17:37:39.520Z,102394.22
2019-05-14T17:40:09.133Z,102399.53
2019-05-14T17:42:35.464Z,102400.84
2019-05-14T17:45:02.796Z,102408.73
2019-05-14T17:47:30.529Z,102404.89
2019-05-14T17:49:59.052Z,102410.59
2019-05-14T17:52:25.957Z,102397.84
2019-05-14T17:54:52.749Z,102411.94
2019-05-14T17:57:24.969Z,102407.09
2019-05-14T17:59:49.593Z,102403.56
2019-05-14T18:02:18.946Z,102403.59
2019-05-14T18:04:45.512Z,102407.96
2019-05-14T18:07:12.428Z,102408.43
2019-05-14T18:09:39.159Z,102409.75
2019-05-14T18:12:08.030Z,102410.61
2019-05-14T18:14:34.731Z,102404.91
2019-05-14T18:17:01.677Z,102404.47
2019-05-14T18:19:29.115Z,102409.28
2019-05-14T18:21:55.991Z,102414.13
2019-05-14T18:24:23.953Z,102412.35
2019-05-14T18:26:50.717Z,102410.14
2019-05-14T18:29:18.905Z,102406.18
2019-05-14T18:31:51.369Z,102414.50
2019-05-14T18:34:15.257Z,102413.61
2019-05-14T18:36:42.056Z,102410.95
2019-05-14T18:39:09.406Z,102405.27
2019-05-14T18:41:38.747Z,102401.28
2019-05-14T18:44:04.990Z,102407.38
2019-05-14T18:46:33.020Z,102409.53
2019-05-14T18:48:59.988Z,102402.52
2019-05-14T18:51:28.770Z,102404.27
2019-05-14T18:53:58.280Z,102403.77
2019-05-14T18:56:24.973Z,102412.00
2019-05-14T18:58:51.762Z,102408.98
2019-05-14T19:01:19.563Z,102411.08
2019-05-14T19:03:49.203Z,102411.05
2019-05-14T19:06:15.642Z,102413.20
2019-05-14T19:08:42.400Z,102415.33
2019-05-14T19:11:10.092Z,102414.75
2019-05-14T19:13:38.963Z,102419.49
2019-05-14T19:16:08.218Z,102417.22
2019-05-14T19:18:34.797Z,102412.28
2019-05-14T19:21:01.719Z,102413.90
2019-05-14T19:23:29.010Z,102411.20
2019-05-14T19:25:56.363Z,102404.64
2019-05-14T19:28:23.268Z,102404.67
2019-05-14T19:30:50.045Z,102405.05
2019-05-14T19:33:20.612Z,102407.63
2019-05-14T19:35:48.377Z,102400.63
2019-05-14T19:38:15.038Z,102395.70
2019-05-14T19:40:53.938Z,102392.98
2019-05-14T19:43:20.991Z,102389.73
2019-05-14T19:45:48.628Z,102392.39
2019-05-14T19:48:15.968Z,102385.77
2019-05-14T19:50:43.328Z,102389.13
2019-05-14T19:53:10.583Z,102392.61
2019-05-14T19:55:39.203Z,102394.36
2019-05-14T19:58:06.177Z,102387.38
2019-05-14T20:00:33.058Z,102389.63
2019-05-14T20:02:59.982Z,102383.13
2019-05-14T20:05:28.673Z,102388.97
2019-05-14T20:07:57.975Z,102389.77
2019-05-14T20:10:24.489Z,102392.30
2019-05-14T20:12:51.349Z,102387.34
2019-05-14T20:15:18.318Z,102392.84
2019-05-14T20:17:45.208Z,102388.73
2019-05-14T20:20:12.152Z,102389.47
2019-05-14T20:22:39.895Z,102384.08
2019-05-14T20:25:07.207Z,102386.72
2019-05-14T20:27:34.084Z,102375.81
2019-05-14T20:30:00.952Z,102384.03
2019-05-14T20:32:27.894Z,102382.66
2019-05-14T20:34:54.798Z,102383.58
2019-05-14T20:37:21.573Z,102380.02
2019-05-14T20:39:48.579Z,102383.90
2019-05-14T20:42:15.403Z,102383.36
2019-05-14T20:44:44.252Z,102380.69
2019-05-14T20:47:11.022Z,102383.17
2019-05-14T20:49:38.227Z,102378.25
2019-05-14T20:52:05.126Z,102375.89
2019-05-14T20:54:31.886Z,102376.31
2019-05-14T20:56:59.074Z,102380.27
2019-05-14T20:59:28.126Z,102374.91
2019-05-14T21:01:54.670Z,102381.52
2019-05-14T21:04:21.732Z,102375.86
2019-05-14T21:06:48.795Z,102373.97
2019-05-14T21:09:15.797Z,102367.40
2019-05-14T21:11:43.688Z,102370.68
2019-05-14T21:14:10.559Z,102366.58
2019-05-14T21:16:39.182Z,102369.14
2019-05-14T21:19:08.458Z,102368.66
2019-05-14T21:21:34.989Z,102368.68
2019-05-14T21:24:01.855Z,102358.12
2019-05-14T21:26:34.817Z,102360.28
2019-05-14T21:29:01.735Z,102359.80
2019-05-14T21:31:28.649Z,102358.36
2019-05-14T21:33:55.428Z,102357.60
2019-05-14T21:36:22.241Z,102366.70
2019-05-14T21:38:49.313Z,102365.69
2019-05-14T21:41:20.117Z,102364.66
2019-05-14T21:43:45.161Z,102362.86
2019-05-14T21:46:11.931Z,102362.23
2019-05-14T21:48:39.167Z,102356.97
2019-05-14T21:51:08.547Z,102353.34
2019-05-14T21:53:34.867Z,102346.20
2019-05-14T21:56:01.775Z,102347.41
2019-05-14T21:58:29.263Z,102347.80
2019-05-14T22:00:59.044Z,102344.12
2019-05-14T22:03:25.406Z,102342.72
2019-05-14T22:05:52.492Z,102334.97
2019-05-14T22:08:19.248Z,102339.35
2019-05-14T22:10:48.708Z,102335.47
2019-05-14T22:13:15.096Z,102335.70
2019-05-14T22:15:41.853Z,102336.55
2019-05-14T22:18:16.938Z,102324.91
2019-05-14T22:20:38.607Z,102326.22
2019-05-14T22:23:05.670Z,102327.09
2019-05-14T22:25:32.443Z,102328.79
2019-05-14T22:28:11.130Z,102323.25
2019-05-14T22:30:29.023Z,102315.02
2019-05-14T22:33:00.420Z,102308.48
2019-05-14T22:35:24.744Z,102312.65
2019-05-14T22:37:51.685Z,102303.97
2019-05-14T22:40:18.684Z,102313.03
2019-05-14T22:42:45.573Z,102308.58
2019-05-14T22:45:12.574Z,102304.00
2019-05-14T22:47:40.406Z,102313.11
2019-05-14T22:50:08.962Z,102300.39
2019-05-14T22:52:38.520Z,102299.16
2019-05-14T22:55:05.031Z,102300.54
2019-05-14T22:57:31.835Z,102305.77
2019-05-14T22:59:58.693Z,102302.16
2019-05-14T23:02:25.610Z,102304.66
2019-05-14T23:04:52.346Z,102296.58
2019-05-14T23:07:19.251Z,102296.09
2019-05-14T23:09:48.250Z,102289.41
2019-05-14T23:12:15.166Z,102295.94
2019-05-14T23:14:42.597Z,102289.23
2019-05-14T23:17:10.565Z,102290.92
2019-05-14T23:19:37.684Z,102292.95
2019-05-14T23:22:04.538Z,102287.08
2019-05-14T23:24:31.295Z,102291.37
2019-05-14T23:26:58.565Z,102286.12
2019-05-14T23:29:25.774Z,102269.13
2019-05-14T23:31:53.563Z,102275.09
2019-05-14T23:34:20.630Z,102274.14
2019-05-14T23:36:48.289Z,102270.84
2019-05-14T23:39:15.403Z,102271.69
2019-05-14T23:41:42.297Z,102273.41
2019-05-14T23:44:09.158Z,102271.91
2019-05-14T23:46:35.984Z,102269.73
2019-05-14T23:49:03.390Z,102271.30
2019-05-14T23:51:30.162Z,102268.69
2019-05-14T23:53:56.938Z,102273.45
2019-05-14T23:56:23.704Z,102272.36
2019-05-14T23:58:55.701Z,102267.95
